Terminal Aerodrome Forecast
Issued by NWS

Home | Current Version | Previous Version | Text Only | Print | Product List | Glossary On
Versions: 1 2 3 4 5 6 7 8 9 10 11 12 13 14 15 16 17 18 19 20 21 22 23 24 25 26 27 28 29 30 31 32 33 34 35 36 37 38 39 40 41 42 43 44 45 46 47 48 49 50
000
FTUS44 KHGX 192359 CCA
TAFIAH
TAF COR
KIAH 192359Z 2000/2106 14010KT P6SM FEW040 SCT120 BKN150 OVC250
     FM200700 09006KT P6SM SCT025 SCT070 BKN100
     FM200900 09005KT P6SM BKN025 BKN090
     FM201500 11008KT P6SM VCSH BKN025 BKN090
     FM201900 12011KT P6SM VCTS BKN035CB OVC060 PROB30 2019/2101
      -TSRA OVC025CB
     FM210100 12008KT P6SM SCT030=

USA.gov is the U.S. government's official web portal to all federal, state and local government web resources and services.